createdAt,value
2022-10-23T00:00:08.699Z,9.82
2022-10-23T00:03:10.882Z,9.79
2022-10-23T00:06:14.245Z,9.72
2022-10-23T00:09:19.405Z,9.68
2022-10-23T00:12:21.551Z,9.64
2022-10-23T00:15:23.905Z,9.90
2022-10-23T00:18:26.259Z,9.79
2022-10-23T00:21:28.582Z,9.75
2022-10-23T00:24:30.752Z,9.55
2022-10-23T00:27:32.955Z,9.27
2022-10-23T00:30:35.097Z,9.09
2022-10-23T00:33:37.517Z,9.42
2022-10-23T00:36:39.660Z,8.97
2022-10-23T00:39:41.961Z,9.11
2022-10-23T00:42:44.382Z,8.99
2022-10-23T00:45:47.206Z,8.77
2022-10-23T00:48:49.819Z,8.59
2022-10-23T00:51:54.333Z,8.60
2022-10-23T00:54:56.972Z,8.66
2022-10-23T00:57:59.481Z,8.73
2022-10-23T01:01:01.695Z,8.65
2022-10-23T01:04:05.946Z,8.47
2022-10-23T01:07:29.890Z,8.70
2022-10-23T01:10:50.298Z,8.60
2022-10-23T01:14:13.189Z,8.27
2022-10-23T01:17:25.972Z,8.13
2022-10-23T01:20:55.717Z,8.09
2022-10-23T01:24:09.158Z,8.26
2022-10-23T01:27:35.577Z,8.29
2022-10-23T01:33:53.128Z,7.96
2022-10-23T01:36:57.340Z,8.06
2022-10-23T01:40:02.883Z,8.16
2022-10-23T01:43:08.393Z,8.28
2022-10-23T01:46:14.328Z,7.92
2022-10-23T01:49:17.399Z,7.95
2022-10-23T01:52:20.152Z,7.98
2022-10-23T01:55:23.435Z,7.94
2022-10-23T01:58:26.818Z,7.77
2022-10-23T02:01:30.734Z,7.72
2022-10-23T02:04:40.302Z,7.81
2022-10-23T02:07:42.934Z,7.86
2022-10-23T02:10:52.926Z,7.82
2022-10-23T02:14:03.637Z,7.79
2022-10-23T02:17:21.830Z,7.96
2022-10-23T02:20:26.204Z,8.16
2022-10-23T02:23:36.099Z,8.16
2022-10-23T02:26:40.756Z,8.02
2022-10-23T02:29:48.841Z,7.75
2022-10-23T02:32:53.720Z,8.06
2022-10-23T02:35:56.186Z,7.92
2022-10-23T02:38:58.583Z,7.70
2022-10-23T02:42:00.638Z,7.69
2022-10-23T02:45:21.240Z,7.59
2022-10-23T02:48:31.995Z,7.61
2022-10-23T02:51:46.352Z,7.63
2022-10-23T02:55:06.940Z,7.63
2022-10-23T02:58:17.982Z,7.51
2022-10-23T03:01:23.671Z,7.60
2022-10-23T03:04:27.281Z,7.49
2022-10-23T03:07:29.664Z,7.55
2022-10-23T03:10:31.875Z,7.50
2022-10-23T03:13:34.021Z,7.43
2022-10-23T03:16:36.156Z,7.36
2022-10-23T03:19:38.299Z,7.20
2022-10-23T03:22:40.708Z,7.21
2022-10-23T03:25:43.044Z,7.05
2022-10-23T03:28:45.185Z,6.94
2022-10-23T03:31:47.289Z,6.96
2022-10-23T03:34:49.488Z,7.11
2022-10-23T03:37:51.646Z,7.13
2022-10-23T03:40:53.865Z,7.02
2022-10-23T03:43:56.071Z,7.10
2022-10-23T03:46:58.287Z,7.02
2022-10-23T03:50:00.419Z,6.84
2022-10-23T03:53:02.539Z,6.92
2022-10-23T03:56:05.058Z,6.92
2022-10-23T03:59:07.199Z,7.06
2022-10-23T04:02:09.496Z,6.97
2022-10-23T04:05:11.998Z,6.88
2022-10-23T04:08:17.695Z,6.91
2022-10-23T04:11:22.338Z,6.83
2022-10-23T04:14:24.474Z,6.80
2022-10-23T04:20:33.619Z,7.04
2022-10-23T04:23:35.786Z,6.91
2022-10-23T04:26:37.896Z,6.94
2022-10-23T04:29:40.013Z,6.94
2022-10-23T04:32:42.331Z,6.93
2022-10-23T04:35:44.556Z,6.72
2022-10-23T04:38:47.890Z,6.64
2022-10-23T04:41:50.054Z,6.63
2022-10-23T04:44:52.182Z,6.69
2022-10-23T04:47:54.352Z,6.64
2022-10-23T04:51:01.501Z,6.59
2022-10-23T04:54:03.934Z,6.64
2022-10-23T04:57:06.098Z,6.73
2022-10-23T05:00:10.766Z,6.72
2022-10-23T05:03:13.654Z,6.75
2022-10-23T05:06:15.825Z,6.67
2022-10-23T05:09:17.986Z,6.77
2022-10-23T05:12:20.814Z,6.83
2022-10-23T05:15:23.035Z,6.89
2022-10-23T05:18:44.610Z,6.91
2022-10-23T05:21:48.167Z,6.85
2022-10-23T05:24:50.772Z,6.90
2022-10-23T05:27:53.094Z,6.90
2022-10-23T05:30:55.816Z,6.78
2022-10-23T05:33:58.048Z,6.82
2022-10-23T05:37:01.309Z,6.80
2022-10-23T05:40:03.828Z,6.96
2022-10-23T05:43:06.017Z,6.95
2022-10-23T05:46:08.144Z,6.79
2022-10-23T05:49:10.363Z,6.77
2022-10-23T05:52:13.126Z,6.83
2022-10-23T05:55:16.202Z,6.94
2022-10-23T05:58:18.340Z,7.02
2022-10-23T06:01:20.629Z,7.09
2022-10-23T06:04:22.829Z,7.22
2022-10-23T06:07:26.428Z,7.29
2022-10-23T06:10:28.677Z,7.34
2022-10-23T06:13:30.832Z,7.46
2022-10-23T06:16:33.295Z,7.64
2022-10-23T06:19:35.458Z,7.77
2022-10-23T06:22:37.654Z,7.85
2022-10-23T06:25:39.795Z,8.12
2022-10-23T06:28:42.374Z,8.39
2022-10-23T06:31:44.517Z,8.75
2022-10-23T06:34:46.652Z,9.07
2022-10-23T06:37:48.841Z,9.30
2022-10-23T06:40:55.521Z,9.54
2022-10-23T06:43:57.711Z,9.82
2022-10-23T06:47:02.005Z,10.06
2022-10-23T06:50:04.490Z,10.15
2022-10-23T06:53:06.959Z,10.36
2022-10-23T06:56:09.483Z,10.39
2022-10-23T06:59:11.680Z,10.54
2022-10-23T07:02:13.860Z,10.75
2022-10-23T07:05:16.114Z,10.89
2022-10-23T07:08:18.339Z,11.04
2022-10-23T07:11:20.578Z,11.15
2022-10-23T07:14:22.776Z,11.27
2022-10-23T07:17:24.951Z,11.47
2022-10-23T07:20:27.211Z,11.58
2022-10-23T07:23:29.393Z,11.71
2022-10-23T07:26:32.947Z,11.91
2022-10-23T07:29:35.126Z,11.85
2022-10-23T07:32:37.297Z,12.10
2022-10-23T07:35:40.992Z,12.14
2022-10-23T07:38:43.236Z,12.18
2022-10-23T07:41:45.400Z,12.20
2022-10-23T07:44:47.526Z,12.40
2022-10-23T07:47:52.586Z,12.40
2022-10-23T07:51:00.834Z,12.58
2022-10-23T07:54:03.137Z,12.83
2022-10-23T07:57:07.362Z,12.82
2022-10-23T08:00:11.376Z,12.99
2022-10-23T08:03:13.599Z,13.17
2022-10-23T08:06:15.813Z,13.42
2022-10-23T08:09:18.042Z,13.32
2022-10-23T08:12:20.186Z,13.32
2022-10-23T08:15:22.304Z,13.55
2022-10-23T08:18:24.540Z,13.50
2022-10-23T08:21:27.280Z,13.47
2022-10-23T08:24:29.920Z,13.35
2022-10-23T08:27:32.072Z,13.24
2022-10-23T08:30:34.297Z,13.18
2022-10-23T08:33:36.928Z,13.15
2022-10-23T08:36:39.387Z,13.27
2022-10-23T08:39:41.674Z,13.20
2022-10-23T08:42:48.835Z,13.43
2022-10-23T08:45:54.004Z,13.56
2022-10-23T08:49:03.386Z,13.45
2022-10-23T08:52:34.587Z,13.57
2022-10-23T08:55:40.855Z,13.86
2022-10-23T08:58:50.734Z,14.14
2022-10-23T09:02:01.240Z,14.15
2022-10-23T09:05:03.977Z,14.42
2022-10-23T09:08:29.212Z,14.59
2022-10-23T09:11:51.834Z,14.50
2022-10-23T09:15:30.592Z,14.77
2022-10-23T09:18:32.839Z,14.80
2022-10-23T09:21:36.132Z,14.84
2022-10-23T09:24:38.385Z,14.90
2022-10-23T09:27:48.637Z,15.01
2022-10-23T09:30:53.141Z,15.26
2022-10-23T09:34:00.937Z,15.22
2022-10-23T09:37:17.535Z,15.29
2022-10-23T09:40:33.983Z,15.50
2022-10-23T09:43:36.190Z,15.33
2022-10-23T09:46:42.394Z,15.39
2022-10-23T09:49:49.991Z,15.53
2022-10-23T09:52:54.470Z,15.34
2022-10-23T09:55:59.275Z,15.32
2022-10-23T09:59:17.910Z,15.42
2022-10-23T10:02:43.319Z,15.43
2022-10-23T10:05:57.206Z,15.21
2022-10-23T10:09:05.831Z,15.27
2022-10-23T10:12:17.033Z,15.37
2022-10-23T10:15:25.016Z,15.38
2022-10-23T10:18:41.308Z,15.40
2022-10-23T10:22:01.341Z,15.43
2022-10-23T10:25:20.038Z,15.59
2022-10-23T10:28:50.116Z,15.66
2022-10-23T10:32:22.441Z,15.88
2022-10-23T10:35:46.173Z,15.83
2022-10-23T10:39:11.210Z,15.80
2022-10-23T10:42:19.757Z,15.94
2022-10-23T10:45:32.975Z,15.92
2022-10-23T10:48:47.358Z,15.91
2022-10-23T10:52:27.378Z,15.92
2022-10-23T10:55:41.396Z,15.99
2022-10-23T10:58:43.466Z,16.18
2022-10-23T11:01:51.677Z,16.32
2022-10-23T11:05:18.810Z,16.32
2022-10-23T11:08:44.551Z,16.35
2022-10-23T11:11:58.022Z,16.46
2022-10-23T11:15:00.206Z,16.47
2022-10-23T11:18:06.121Z,16.59
2022-10-23T11:21:27.129Z,16.53
2022-10-23T11:25:03.467Z,16.67
2022-10-23T11:28:46.216Z,16.42
2022-10-23T11:32:23.691Z,16.52
2022-10-23T11:35:41.747Z,16.68
2022-10-23T11:38:46.886Z,16.71
2022-10-23T11:42:00.596Z,16.73
2022-10-23T11:45:02.780Z,16.79
2022-10-23T11:48:13.953Z,16.83
2022-10-23T11:51:42.201Z,16.90
2022-10-23T11:54:44.316Z,16.86
2022-10-23T11:58:04.805Z,16.80
2022-10-23T12:01:43.858Z,16.95
2022-10-23T12:04:51.402Z,16.92
2022-10-23T12:07:59.482Z,17.03
2022-10-23T12:11:01.699Z,16.93
2022-10-23T12:14:03.891Z,16.88
2022-10-23T12:17:24.738Z,17.06
2022-10-23T12:20:50.413Z,16.98
2022-10-23T12:24:23.258Z,16.97
2022-10-23T12:27:32.220Z,16.98
2022-10-23T12:30:56.619Z,17.01
2022-10-23T12:34:17.018Z,16.86
2022-10-23T12:37:55.131Z,16.84
2022-10-23T12:41:13.986Z,16.95
2022-10-23T12:44:16.258Z,17.09
2022-10-23T12:47:19.168Z,17.08
2022-10-23T12:50:26.773Z,17.15
2022-10-23T12:53:29.088Z,17.09
2022-10-23T12:56:35.959Z,17.01
2022-10-23T12:59:39.305Z,16.89
2022-10-23T13:02:41.822Z,16.94
2022-10-23T13:05:44.276Z,17.02
2022-10-23T13:08:47.934Z,17.14
2022-10-23T13:11:51.874Z,17.14
2022-10-23T13:15:15.467Z,17.20
2022-10-23T13:18:18.117Z,17.21
2022-10-23T13:21:22.831Z,16.90
2022-10-23T13:24:27.097Z,16.82
2022-10-23T13:27:35.371Z,16.77
2022-10-23T13:30:42.704Z,16.68
2022-10-23T13:33:47.181Z,16.81
2022-10-23T13:37:01.295Z,16.88
2022-10-23T13:40:05.263Z,16.79
2022-10-23T13:43:13.947Z,16.71
2022-10-23T13:46:21.721Z,16.44
2022-10-23T13:49:24.136Z,16.24
2022-10-23T13:52:26.400Z,16.23
2022-10-23T13:55:28.926Z,16.10
2022-10-23T13:58:31.113Z,16.10
2022-10-23T14:01:35.911Z,16.16
2022-10-23T14:04:38.128Z,16.22
2022-10-23T14:07:40.673Z,16.22
2022-10-23T14:10:42.997Z,16.11
2022-10-23T14:13:45.845Z,16.17
2022-10-23T14:16:47.985Z,16.16
2022-10-23T14:19:50.286Z,16.12
2022-10-23T14:22:52.571Z,16.16
2022-10-23T14:25:54.722Z,16.16
2022-10-23T14:28:59.563Z,16.14
2022-10-23T14:32:05.370Z,16.13
2022-10-23T14:35:07.828Z,16.05
2022-10-23T14:38:10.889Z,16.06
2022-10-23T14:41:15.500Z,16.08
2022-10-23T14:44:17.833Z,16.03
2022-10-23T14:47:20.597Z,16.01
2022-10-23T14:50:22.992Z,15.90
2022-10-23T14:53:27.474Z,15.82
2022-10-23T14:56:32.410Z,15.93
2022-10-23T14:59:34.550Z,15.87
2022-10-23T15:02:36.994Z,15.74
2022-10-23T15:05:41.799Z,15.75
2022-10-23T15:08:43.931Z,15.72
2022-10-23T15:11:46.851Z,15.68
2022-10-23T15:14:49.151Z,15.69
2022-10-23T15:17:51.278Z,15.68
2022-10-23T15:20:54.073Z,15.67
2022-10-23T15:23:56.202Z,15.71
2022-10-23T15:27:00.050Z,15.71
2022-10-23T15:30:02.449Z,15.77
2022-10-23T15:33:05.474Z,15.69
2022-10-23T15:36:08.102Z,15.67
2022-10-23T15:39:10.942Z,15.68
2022-10-23T15:42:13.707Z,15.74
2022-10-23T15:45:17.645Z,15.81
2022-10-23T15:48:20.055Z,15.82
2022-10-23T15:51:23.321Z,15.68
2022-10-23T15:54:28.176Z,15.66
2022-10-23T15:57:32.866Z,15.64
2022-10-23T16:00:36.724Z,15.56
2022-10-23T16:03:39.306Z,15.54
2022-10-23T16:06:42.177Z,15.52
2022-10-23T16:09:44.306Z,15.48
2022-10-23T16:12:46.786Z,15.42
2022-10-23T16:15:49.085Z,15.45
2022-10-23T16:18:51.618Z,15.43
2022-10-23T16:21:53.936Z,15.43
2022-10-23T16:24:56.322Z,15.42
2022-10-23T16:27:59.105Z,15.43
2022-10-23T16:31:01.486Z,15.44
2022-10-23T16:34:05.422Z,15.43
2022-10-23T16:37:07.671Z,15.52
2022-10-23T16:40:10.454Z,15.64
2022-10-23T16:43:12.565Z,15.54
2022-10-23T16:46:18.009Z,15.48
2022-10-23T16:49:20.410Z,15.50
2022-10-23T16:52:22.646Z,15.52
2022-10-23T16:55:25.018Z,15.52
2022-10-23T16:58:28.465Z,15.53
2022-10-23T17:01:32.211Z,15.63
2022-10-23T17:04:36.253Z,15.51
2022-10-23T17:07:38.637Z,15.45
2022-10-23T17:10:41.033Z,15.57
2022-10-23T17:13:46.467Z,15.51
2022-10-23T17:16:51.486Z,15.48
2022-10-23T17:19:53.880Z,15.54
2022-10-23T17:22:56.581Z,15.46
2022-10-23T17:25:59.620Z,15.51
2022-10-23T17:29:07.002Z,15.39
2022-10-23T17:32:09.422Z,15.40
2022-10-23T17:35:12.006Z,15.36
2022-10-23T17:38:19.079Z,15.31
2022-10-23T17:41:23.517Z,15.39
2022-10-23T17:44:26.119Z,15.40
2022-10-23T17:47:28.438Z,15.41
2022-10-23T17:50:30.813Z,15.48
2022-10-23T17:53:34.771Z,15.48
2022-10-23T17:56:38.392Z,15.43
2022-10-23T17:59:41.022Z,15.40
2022-10-23T18:02:43.233Z,15.34
2022-10-23T18:05:45.995Z,15.39
2022-10-23T18:08:50.329Z,15.38
2022-10-23T18:11:52.968Z,15.34
2022-10-23T18:14:56.369Z,15.25
2022-10-23T18:17:58.783Z,15.38
2022-10-23T18:21:03.497Z,15.29
2022-10-23T18:24:06.157Z,15.25
2022-10-23T18:27:08.624Z,15.23
2022-10-23T18:30:11.735Z,15.20
2022-10-23T18:33:15.173Z,15.15
2022-10-23T18:36:23.610Z,15.17
2022-10-23T18:39:26.322Z,15.12
2022-10-23T18:42:28.737Z,15.05
2022-10-23T18:45:31.641Z,15.13
2022-10-23T18:48:34.150Z,15.17
2022-10-23T18:51:37.307Z,15.15
2022-10-23T18:54:39.689Z,15.21
2022-10-23T18:57:42.707Z,15.24
2022-10-23T19:00:45.996Z,15.17
2022-10-23T19:03:48.972Z,15.39
2022-10-23T19:06:51.686Z,15.38
2022-10-23T19:09:55.647Z,15.36
2022-10-23T19:12:58.087Z,15.30
2022-10-23T19:16:00.264Z,15.36
2022-10-23T19:19:11.231Z,15.23
2022-10-23T19:22:14.908Z,15.18
2022-10-23T19:25:30.234Z,15.15
2022-10-23T19:28:37.548Z,15.12
2022-10-23T19:31:44.751Z,15.13
2022-10-23T19:34:47.264Z,15.21
2022-10-23T19:37:50.996Z,15.13
2022-10-23T19:40:53.439Z,15.11
2022-10-23T19:43:55.876Z,15.22
2022-10-23T19:47:05.217Z,15.22
2022-10-23T19:50:09.700Z,15.28
2022-10-23T19:53:11.958Z,15.30
2022-10-23T19:56:14.411Z,15.33
2022-10-23T19:59:16.958Z,15.31
2022-10-23T20:02:20.322Z,15.23
2022-10-23T20:05:23.251Z,15.17
2022-10-23T20:08:25.709Z,15.07
2022-10-23T20:11:30.626Z,15.03
2022-10-23T20:14:33.603Z,14.99
2022-10-23T20:17:37.144Z,15.03
2022-10-23T20:20:42.152Z,14.98
2022-10-23T20:23:44.785Z,14.90
2022-10-23T20:26:53.159Z,14.93
2022-10-23T20:29:55.396Z,14.92
2022-10-23T20:32:57.751Z,14.95
2022-10-23T20:36:00.479Z,14.97
2022-10-23T20:39:05.918Z,15.00
2022-10-23T20:42:08.414Z,14.96
2022-10-23T20:45:10.916Z,14.98
2022-10-23T20:48:13.377Z,15.04
2022-10-23T20:51:18.073Z,14.95
2022-10-23T20:54:26.836Z,14.94
2022-10-23T20:57:29.243Z,14.91
2022-10-23T21:00:31.520Z,14.86
2022-10-23T21:03:33.898Z,14.77
2022-10-23T21:06:51.559Z,14.66
2022-10-23T21:09:58.288Z,14.65
2022-10-23T21:13:00.439Z,14.69
2022-10-23T21:16:17.886Z,14.63
2022-10-23T21:19:20.060Z,14.60
2022-10-23T21:22:22.191Z,14.53
2022-10-23T21:25:24.398Z,14.38
2022-10-23T21:28:27.237Z,14.32
2022-10-23T21:31:29.470Z,14.30
2022-10-23T21:34:31.610Z,14.18
2022-10-23T21:37:33.751Z,14.25
2022-10-23T21:40:35.845Z,14.27
2022-10-23T21:43:38.088Z,14.16
2022-10-23T21:46:41.690Z,14.22
2022-10-23T21:49:44.114Z,14.20
2022-10-23T21:52:50.943Z,14.24
2022-10-23T21:55:53.698Z,14.23
2022-10-23T21:58:57.206Z,14.18
2022-10-23T22:01:59.666Z,14.17
2022-10-23T22:05:01.923Z,14.16
2022-10-23T22:08:04.207Z,14.16
2022-10-23T22:11:06.326Z,14.16
2022-10-23T22:14:08.792Z,14.34
2022-10-23T22:17:10.931Z,14.28
2022-10-23T22:20:13.054Z,14.29
2022-10-23T22:23:15.138Z,14.41
2022-10-23T22:26:22.402Z,14.40
2022-10-23T22:29:27.472Z,14.37
2022-10-23T22:32:29.763Z,14.23
2022-10-23T22:35:31.882Z,14.14
2022-10-23T22:38:33.992Z,14.12
2022-10-23T22:41:36.124Z,14.14
2022-10-23T22:44:38.285Z,14.01
2022-10-23T22:47:40.377Z,13.91
2022-10-23T22:50:42.483Z,14.00
2022-10-23T22:53:44.903Z,14.01
2022-10-23T22:56:47.103Z,13.92
2022-10-23T22:59:49.326Z,13.94
2022-10-23T23:02:51.488Z,14.03
2022-10-23T23:05:53.613Z,14.01
2022-10-23T23:08:56.174Z,13.95
2022-10-23T23:11:58.492Z,13.96
2022-10-23T23:15:00.701Z,13.92
2022-10-23T23:18:02.905Z,14.01
2022-10-23T23:21:06.216Z,14.18
2022-10-23T23:24:09.488Z,13.96
2022-10-23T23:27:11.630Z,13.75
2022-10-23T23:30:13.845Z,13.69
2022-10-23T23:33:22.297Z,13.67
2022-10-23T23:36:26.316Z,13.69
2022-10-23T23:39:28.746Z,13.86
2022-10-23T23:42:31.390Z,13.89
2022-10-23T23:45:33.573Z,13.78
2022-10-23T23:48:35.851Z,13.76
2022-10-23T23:51:37.999Z,13.81
2022-10-23T23:54:40.133Z,13.70
2022-10-23T23:57:42.625Z,13.62
